Terminal Aerodrome Forecast
Issued by NWS Cleveland, OH

Home | Current Version | Previous Version | Text Only | Print | Product List | Glossary Off
Versions: 1 2 3 4 5 6 7 8 9 10 11 12 13 14 15 16 17

000
FTUS41 KCLE 211723
TAFMFD
TAF
KMFD 211723Z 2118/2218 28006KT P6SM FEW035 SCT050
     FM212300 VRB03KT P6SM SCT250
     FM220800 15006KT P6SM SCT050 BKN100
     FM221400 22008KT P6SM SCT050 BKN080=

USA.gov is the U.S. government's official web portal to all federal, state and local government web resources and services.